Time;durP1;ratioP1;P1;durP2;ratioP2;P2;SDS_P1;SDS_P2;PMS_P1;PMS_P2;Temp;Humidity;BMP_temperature;BMP_pressure;BME280_temperature;BME280_humidity;BME280_pressure;Samples;Min_cycle;Max_cycle;Signal;HPM_P1;HPM_P2
2023/08/05 00:00:28;;;;;;;9.07;4.47;;;;;;;14.23;83.62;100440.94;5033493;28;20099;-45
2023/08/05 00:02:55;;;;;;;6.53;3.78;;;;;;;14.25;83.65;100432.22;5032814;28;20038;-46
2023/08/05 00:05:22;;;;;;;9.60;4.20;;;;;;;14.24;83.84;100420.28;5031099;28;20049;-46
2023/08/05 00:07:50;;;;;;;9.18;3.83;;;;;;;14.22;83.92;100419.03;5033213;28;20534;-44
2023/08/05 00:10:17;;;;;;;11.93;4.20;;;;;;;14.15;84.17;100408.63;5030944;28;20041;-44
2023/08/05 00:12:44;;;;;;;8.32;4.05;;;;;;;14.10;84.23;100400.59;5031942;28;20053;-45
2023/08/05 00:15:11;;;;;;;9.30;4.03;;;;;;;14.01;84.47;100397.28;5030613;28;20089;-45
2023/08/05 00:17:38;;;;;;;10.23;5.05;;;;;;;13.92;84.34;100380.88;5027222;28;20048;-44
2023/08/05 00:20:07;;;;;;;8.68;3.42;;;;;;;13.78;84.50;100377.88;5031137;28;20060;-44
2023/08/05 00:22:35;;;;;;;7.80;3.10;;;;;;;13.68;84.72;100366.59;5032518;28;20050;-45
2023/08/05 00:25:02;;;;;;;9.90;3.58;;;;;;;13.59;85.16;100352.97;5032516;28;20503;-45
2023/08/05 00:27:29;;;;;;;8.57;3.20;;;;;;;13.52;85.31;100350.09;5031109;28;20443;-44
2023/08/05 00:29:56;;;;;;;7.22;3.10;;;;;;;13.42;85.38;100347.94;5031963;28;20041;-44
2023/08/05 00:32:23;;;;;;;7.63;3.30;;;;;;;13.35;85.50;100331.13;5031660;28;20049;-44
2023/08/05 00:34:50;;;;;;;4.75;3.42;;;;;;;13.29;85.67;100327.09;5032975;28;20164;-44
2023/08/05 00:37:17;;;;;;;9.50;3.20;;;;;;;13.25;85.77;100312.31;5032582;28;20128;-44
2023/08/05 00:39:43;;;;;;;7.40;3.42;;;;;;;13.20;85.89;100301.50;5029906;28;20491;-45
2023/08/05 00:42:10;;;;;;;10.02;3.03;;;;;;;13.13;86.34;100284.75;5026563;28;20045;-44
2023/08/05 00:44:37;;;;;;;11.48;4.05;;;;;;;13.11;86.27;100287.06;5027734;28;20037;-44
2023/08/05 00:47:04;;;;;;;10.38;4.63;;;;;;;13.11;86.45;100279.53;5027607;28;20069;-44
2023/08/05 00:49:33;;;;;;;11.18;3.90;;;;;;;13.06;86.59;100257.59;5027904;28;20041;-43
2023/08/05 00:52:00;;;;;;;11.02;3.70;;;;;;;13.07;86.86;100261.22;5026050;28;20049;-44
2023/08/05 00:54:27;;;;;;;10.25;3.80;;;;;;;13.03;86.95;100246.41;5032160;28;20046;-46
2023/08/05 00:56:53;;;;;;;8.70;3.40;;;;;;;13.00;87.45;100245.19;5027946;28;20049;-44
2023/08/05 00:59:21;;;;;;;9.23;3.75;;;;;;;12.97;87.19;100232.06;5024987;28;20053;-45
2023/08/05 01:01:48;;;;;;;6.47;3.50;;;;;;;12.95;87.95;100214.13;5027429;28;20550;-44
2023/08/05 01:04:16;;;;;;;10.82;4.55;;;;;;;12.92;87.96;100206.56;5026169;28;20491;-45
2023/08/05 01:06:44;;;;;;;11.20;5.00;;;;;;;12.88;88.46;100192.63;5027629;28;20056;-44
2023/08/05 01:09:11;;;;;;;9.38;3.53;;;;;;;12.85;88.79;100185.03;5028601;28;20392;-44
2023/08/05 01:11:38;;;;;;;9.05;3.90;;;;;;;12.86;88.91;100174.72;5029825;28;20069;-43
2023/08/05 01:14:07;;;;;;;8.68;3.35;;;;;;;12.83;90.05;100163.19;5026965;28;20053;-44
2023/08/05 01:16:34;;;;;;;10.85;4.97;;;;;;;12.82;89.92;100163.53;5029914;28;20052;-44
2023/08/05 01:19:04;;;;;;;10.07;3.60;;;;;;;12.81;90.26;100157.19;5027153;28;20535;-44
2023/08/05 01:22:03;;;;;;;11.80;3.08;;;;;;;12.77;90.58;100144.41;5029678;28;20061;-43
2023/08/05 01:24:38;;;;;;;10.38;3.45;;;;;;;12.76;90.37;100132.50;5030495;28;20522;-46
2023/08/05 01:27:07;;;;;;;15.07;4.20;;;;;;;12.75;90.59;100125.38;5031849;28;20080;-43
2023/08/05 01:29:34;;;;;;;13.45;4.00;;;;;;;12.74;90.94;100118.19;5031586;28;20141;-44
2023/08/05 01:32:02;;;;;;;8.25;3.53;;;;;;;12.72;91.25;100108.63;5031865;28;20049;-43
2023/08/05 01:34:30;;;;;;;15.73;3.72;;;;;;;12.70;91.92;100094.34;5028342;28;20042;-43
2023/08/05 01:36:57;;;;;;;8.55;4.10;;;;;;;12.70;92.08;100086.00;5031705;28;20045;-44
2023/08/05 01:39:23;;;;;;;12.75;3.92;;;;;;;12.69;92.73;100071.31;5031580;28;20095;-44
2023/08/05 01:41:51;;;;;;;18.10;3.80;;;;;;;12.67;92.88;100075.63;5031684;28;20049;-43
2023/08/05 01:44:18;;;;;;;6.70;2.55;;;;;;;12.65;92.93;100053.81;5031176;28;20046;-45
2023/08/05 01:46:45;;;;;;;6.07;2.13;;;;;;;12.59;93.70;100060.84;5031187;28;20049;-44
2023/08/05 01:49:11;;;;;;;6.85;2.63;;;;;;;12.57;93.48;100045.75;5031397;28;20128;-44
2023/08/05 01:51:39;;;;;;;8.82;2.58;;;;;;;12.54;94.17;100036.19;5031516;28;20466;-44
2023/08/05 01:54:06;;;;;;;7.05;2.38;;;;;;;12.52;94.51;100027.41;5031658;28;20049;-44
2023/08/05 01:56:33;;;;;;;8.55;2.50;;;;;;;12.51;95.10;100027.81;5030309;28;20152;-44
2023/08/05 01:58:59;;;;;;;8.70;2.38;;;;;;;12.50;94.99;100002.00;5028831;28;20088;-46
2023/08/05 02:01:46;;;;;;;9.45;2.47;;;;;;;12.46;95.62;99987.28;5028003;28;20152;-43
2023/08/05 02:04:13;;;;;;;11.57;3.58;;;;;;;12.45;95.84;99982.09;5022251;28;20048;-44
2023/08/05 02:06:41;;;;;;;18.58;3.90;;;;;;;12.41;95.33;99976.53;5028528;28;20053;-44
2023/08/05 02:09:08;;;;;;;20.48;4.57;;;;;;;12.38;95.54;99982.81;5028754;28;20492;-44
2023/08/05 02:11:35;;;;;;;11.25;4.13;;;;;;;12.34;95.85;99965.31;5026528;28;20393;-46
2023/08/05 02:14:02;;;;;;;11.43;3.67;;;;;;;12.30;96.25;99947.81;5027900;28;20045;-44
2023/08/05 02:16:33;;;;;;;11.82;3.22;;;;;;;12.23;96.64;99936.63;5026931;28;20057;-43
2023/08/05 02:19:00;;;;;;;14.02;3.05;;;;;;;12.20;97.10;99931.81;5029967;28;20048;-43
2023/08/05 02:21:26;;;;;;;16.08;3.05;;;;;;;12.16;97.27;99929.00;5027518;28;20107;-43
2023/08/05 02:23:53;;;;;;;10.25;3.17;;;;;;;12.17;97.77;99913.16;5029432;28;20037;-44
2023/08/05 02:26:20;;;;;;;11.18;3.38;;;;;;;12.19;98.09;99913.56;5028349;28;20044;-44
2023/08/05 02:28:47;;;;;;;9.02;3.05;;;;;;;12.21;98.47;99900.09;5030324;28;20149;-44
2023/08/05 02:31:14;;;;;;;14.73;3.60;;;;;;;12.21;98.39;99906.47;5028580;28;20045;-43
2023/08/05 02:33:41;;;;;;;10.25;3.17;;;;;;;12.23;98.53;99886.69;5029047;28;20052;-43
2023/08/05 02:36:08;;;;;;;10.27;3.03;;;;;;;12.29;98.76;99876.81;5028945;28;20087;-43
2023/08/05 02:38:35;;;;;;;10.55;2.33;;;;;;;12.35;99.64;99875.31;5028362;28;20045;-43
2023/08/05 02:41:06;;;;;;;8.70;2.70;;;;;;;12.37;99.15;99869.38;5026775;28;20076;-43
2023/08/05 02:43:33;;;;;;;8.02;1.65;;;;;;;12.38;99.89;99854.31;5029984;28;20048;-44
2023/08/05 02:46:00;;;;;;;13.27;2.05;;;;;;;12.36;99.84;99846.41;5032361;28;20084;-44
2023/08/05 02:48:27;;;;;;;9.63;2.15;;;;;;;12.37;100.00;99833.28;5032486;28;20553;-43
2023/08/05 02:50:55;;;;;;;4.22;1.35;;;;;;;12.37;100.00;99814.66;5032609;28;20136;-44
2023/08/05 02:53:22;;;;;;;5.15;1.40;;;;;;;12.39;100.00;99806.75;5031390;28;20351;-44
2023/08/05 02:55:48;;;;;;;7.65;1.73;;;;;;;12.39;100.00;99801.19;5033472;28;20100;-44
2023/08/05 02:58:16;;;;;;;5.13;1.23;;;;;;;12.39;100.00;99790.09;5031621;28;20045;-43
2023/08/05 03:00:43;;;;;;;4.80;1.42;;;;;;;12.39;100.00;99770.66;5030126;28;20053;-42
2023/08/05 03:03:11;;;;;;;4.47;1.02;;;;;;;12.38;100.00;99760.75;5031334;28;20533;-44
2023/08/05 03:05:37;;;;;;;6.80;1.60;;;;;;;12.38;100.00;99738.56;5030365;28;20042;-44
2023/08/05 03:08:04;;;;;;;5.63;0.80;;;;;;;12.35;100.00;99733.75;5033343;28;20426;-43
2023/08/05 03:10:31;;;;;;;4.28;3.03;;;;;;;12.37;100.00;99730.59;5033681;28;20144;-43
2023/08/05 03:12:58;;;;;;;6.78;1.80;;;;;;;12.40;100.00;99713.97;5030206;28;20470;-45
2023/08/05 03:15:28;;;;;;;8.90;1.50;;;;;;;12.43;100.00;99704.88;5033518;28;20051;-42
2023/08/05 03:17:55;;;;;;;7.00;1.27;;;;;;;12.42;100.00;99697.72;5032329;28;20630;-43
2023/08/05 03:20:30;;;;;;;7.15;1.55;;;;;;;12.44;100.00;99689.03;5033152;28;20056;-43
2023/08/05 03:22:57;;;;;;;9.40;1.25;;;;;;;12.45;100.00;99694.19;5029121;28;20079;-43
2023/08/05 03:25:26;;;;;;;15.18;4.13;;;;;;;12.44;100.00;99675.97;5031882;28;20061;-43
2023/08/05 03:27:53;;;;;;;9.95;3.10;;;;;;;12.43;100.00;99677.13;5032115;28;20075;-43
2023/08/05 03:30:20;;;;;;;9.77;1.30;;;;;;;12.41;100.00;99676.72;5034157;28;20096;-43
2023/08/05 03:32:47;;;;;;;6.93;1.50;;;;;;;12.42;100.00;99660.84;5032195;28;20053;-43
2023/08/05 03:35:15;;;;;;;8.88;1.58;;;;;;;12.41;100.00;99654.53;5032593;28;20046;-43
2023/08/05 03:37:46;;;;;;;8.43;1.67;;;;;;;12.40;100.00;99635.44;5034112;28;20041;-43
2023/08/05 03:40:13;;;;;;;11.60;2.20;;;;;;;12.42;100.00;99636.66;5033873;28;20096;-43
2023/08/05 03:42:40;;;;;;;14.73;1.80;;;;;;;12.43;100.00;99613.28;5032700;28;20080;-43
2023/08/05 03:45:09;;;;;;;12.70;1.80;;;;;;;12.45;100.00;99608.13;5033756;28;20041;-43
2023/08/05 03:47:36;;;;;;;9.05;1.50;;;;;;;12.47;100.00;99614.09;5033996;28;20119;-42
2023/08/05 03:50:04;;;;;;;2.60;0.60;;;;;;;12.48;100.00;99610.16;5033758;28;20128;-43
2023/08/05 03:52:31;;;;;;;7.47;1.60;;;;;;;12.45;100.00;99616.47;5031922;28;20033;-43
2023/08/05 03:54:58;;;;;;;0.00;0.00;;;;;;;12.42;100.00;99600.56;5033702;28;20057;-43
2023/08/05 03:57:24;;;;;;;0.00;0.00;;;;;;;12.37;100.00;99600.13;5032371;28;20067;-42
2023/08/05 03:59:51;;;;;;;0.00;0.00;;;;;;;12.35;100.00;99585.84;5033575;28;20072;-43
2023/08/05 04:02:18;;;;;;;0.00;0.00;;;;;;;12.37;100.00;99587.06;5033201;28;20148;-42
2023/08/05 04:04:46;;;;;;;0.00;0.00;;;;;;;12.38;100.00;99585.09;5033164;28;20047;-48
2023/08/05 04:07:13;;;;;;;0.10;0.10;;;;;;;12.37;100.00;99564.06;5031750;28;20136;-43
2023/08/05 04:09:40;;;;;;;0.00;0.00;;;;;;;12.37;100.00;99570.41;5031146;28;20487;-43
2023/08/05 04:12:09;;;;;;;0.00;0.00;;;;;;;12.38;100.00;99560.91;5032828;28;20132;-43
2023/08/05 04:14:37;;;;;;;0.05;0.05;;;;;;;12.35;100.00;99556.13;5033155;28;20451;-43
2023/08/05 04:17:05;;;;;;;0.00;0.00;;;;;;;12.32;100.00;99558.88;5033266;28;20049;-42
2023/08/05 04:19:33;;;;;;;0.00;0.00;;;;;;;12.30;100.00;99542.63;5033259;28;20091;-43
2023/08/05 04:22:01;;;;;;;0.00;0.00;;;;;;;12.31;100.00;99555.28;5032207;28;20044;-42
2023/08/05 04:24:29;;;;;;;0.00;0.00;;;;;;;12.30;100.00;99550.94;5032729;28;20057;-43
2023/08/05 04:26:59;;;;;;;0.00;0.00;;;;;;;12.29;100.00;99556.84;5031886;28;20053;-43
2023/08/05 04:29:26;;;;;;;0.00;0.00;;;;;;;12.28;100.00;99528.34;5032906;28;20049;-42
2023/08/05 04:31:53;;;;;;;0.00;0.00;;;;;;;12.23;100.00;99550.09;5030153;28;20046;-43
2023/08/05 04:34:20;;;;;;;0.00;0.00;;;;;;;12.20;100.00;99544.09;5031236;28;20124;-47
2023/08/05 04:36:51;;;;;;;0.00;0.00;;;;;;;12.22;100.00;99546.50;5032261;28;20048;-42
2023/08/05 04:39:19;;;;;;;0.08;0.08;;;;;;;12.23;100.00;99525.13;5036326;28;20077;-42
2023/08/05 04:41:48;;;;;;;0.00;0.00;;;;;;;12.23;100.00;99516.78;5040794;28;20136;-42
2023/08/05 04:44:15;;;;;;;0.00;0.00;;;;;;;12.25;100.00;99515.22;5032527;28;20037;-43
2023/08/05 04:46:42;;;;;;;0.00;0.00;;;;;;;12.25;100.00;99512.44;5032624;28;20049;-42
2023/08/05 04:49:11;;;;;;;0.00;0.00;;;;;;;12.23;100.00;99509.28;5031238;28;20435;-42
2023/08/05 04:51:38;;;;;;;0.00;0.00;;;;;;;12.21;100.00;99504.09;5030837;28;20077;-43
2023/08/05 04:54:04;;;;;;;0.00;0.00;;;;;;;12.21;100.00;99494.97;5032290;28;20492;-42
2023/08/05 04:56:33;;;;;;;0.00;0.00;;;;;;;12.18;100.00;99488.22;5032603;28;20499;-43
2023/08/05 04:59:00;;;;;;;0.00;0.00;;;;;;;12.20;100.00;99490.63;5031148;28;20041;-43
2023/08/05 05:01:27;;;;;;;0.00;0.00;;;;;;;12.18;100.00;99474.34;5030349;28;20057;-42
2023/08/05 05:03:54;;;;;;;0.00;0.00;;;;;;;12.16;100.00;99479.47;5031877;28;20072;-42
2023/08/05 05:06:23;;;;;;;0.00;0.00;;;;;;;12.14;100.00;99467.19;5028935;28;20047;-43
2023/08/05 05:08:50;;;;;;;0.00;0.00;;;;;;;12.07;100.00;99479.00;5028856;28;20057;-42
2023/08/05 05:11:19;;;;;;;0.00;0.00;;;;;;;11.98;100.00;99470.25;5029991;28;20045;-44
2023/08/05 05:13:50;;;;;;;0.00;0.00;;;;;;;11.96;100.00;99478.16;5029349;28;20108;-42
2023/08/05 05:16:17;;;;;;;0.10;0.10;;;;;;;11.92;100.00;99491.19;5029662;28;20099;-43
2023/08/05 05:18:44;;;;;;;0.00;0.00;;;;;;;11.86;100.00;99484.41;5029357;28;20050;-43
2023/08/05 05:21:11;;;;;;;0.00;0.00;;;;;;;11.84;100.00;99508.16;5028066;28;20049;-42
2023/08/05 05:23:38;;;;;;;0.00;0.00;;;;;;;11.82;100.00;99493.88;5029425;28;20545;-41
2023/08/05 05:26:06;;;;;;;0.00;0.00;;;;;;;11.81;100.00;99498.63;5028258;28;20072;-42
2023/08/05 05:28:33;;;;;;;0.00;0.00;;;;;;;11.80;100.00;99496.25;5029155;28;20081;-41
2023/08/05 05:31:03;;;;;;;0.00;0.00;;;;;;;11.74;100.00;99497.78;5028740;28;20053;-41
2023/08/05 05:33:30;;;;;;;0.00;0.00;;;;;;;11.75;100.00;99504.94;5029007;28;20098;-41
2023/08/05 05:35:57;;;;;;;0.00;0.00;;;;;;;11.72;100.00;99506.50;5030639;28;20049;-42
2023/08/05 05:38:23;;;;;;;0.00;0.00;;;;;;;11.71;100.00;99540.94;5031705;28;20041;-43
2023/08/05 05:40:56;;;;;;;0.00;0.00;;;;;;;11.57;100.00;99518.56;5031587;28;20688;-43
2023/08/05 05:43:23;;;;;;;0.00;0.00;;;;;;;11.46;100.00;99526.78;5031236;28;20132;-43
2023/08/05 05:45:53;;;;;;;0.00;0.00;;;;;;;11.36;100.00;99538.56;5031609;28;20400;-43
2023/08/05 05:48:20;;;;;;;0.00;0.00;;;;;;;11.34;100.00;99538.16;5031919;28;20042;-42
2023/08/05 05:50:52;;;;;;;0.00;0.00;;;;;;;11.29;100.00;99557.09;5031238;28;20052;-42
2023/08/05 05:53:18;;;;;;;;;;;;;;;11.22;100.00;99563.34;5031031;28;20057;-44
2023/08/05 05:55:50;;;;;;;0.22;0.22;;;;;;;11.19;100.00;99561.34;5031316;28;19932;-43
2023/08/05 05:58:16;;;;;;;0.50;0.50;;;;;;;11.15;100.00;99577.09;5031615;28;20045;-43
2023/08/05 06:00:43;;;;;;;0.00;0.00;;;;;;;11.09;100.00;99584.16;5028885;28;20454;-43
2023/08/05 06:03:10;;;;;;;0.00;0.00;;;;;;;11.08;100.00;99590.06;5029099;28;20073;-43
2023/08/05 06:05:37;;;;;;;0.35;0.35;;;;;;;11.03;100.00;99596.75;5029022;28;20111;-43
2023/08/05 06:08:04;;;;;;;0.05;0.05;;;;;;;11.04;100.00;99606.63;5028483;28;20041;-43
2023/08/05 06:10:36;;;;;;;0.00;0.00;;;;;;;11.08;100.00;99626.09;5030692;28;20559;-44
2023/08/05 06:13:04;;;;;;;0.00;0.00;;;;;;;11.11;100.00;99628.91;5028405;28;20052;-42
2023/08/05 06:15:31;;;;;;;0.10;0.10;;;;;;;11.12;100.00;99646.34;5027242;28;20049;-42
2023/08/05 06:17:58;;;;;;;0.00;0.00;;;;;;;11.09;100.00;99661.72;5027013;28;20068;-43
2023/08/05 06:20:25;;;;;;;0.00;0.00;;;;;;;11.07;100.00;99660.50;5027049;28;20407;-44
2023/08/05 06:22:52;;;;;;;0.25;0.25;;;;;;;11.07;100.00;99664.06;5029560;28;20064;-42
2023/08/05 06:25:18;;;;;;;0.00;0.00;;;;;;;11.03;100.00;99674.28;5027808;28;20045;-42
2023/08/05 06:27:46;;;;;;;0.00;0.00;;;;;;;11.01;100.00;99677.41;5026400;28;20069;-41
2023/08/05 06:30:12;;;;;;;0.00;0.00;;;;;;;11.07;100.00;99693.75;5030356;28;20133;-43
2023/08/05 06:32:39;;;;;;;0.00;0.00;;;;;;;11.09;100.00;99711.59;5025948;28;20049;-42
2023/08/05 06:35:06;;;;;;;0.00;0.00;;;;;;;11.12;100.00;99710.81;5026893;28;20037;-43
2023/08/05 06:37:33;;;;;;;0.10;0.10;;;;;;;11.12;100.00;99734.97;5029293;28;20045;-42
2023/08/05 06:40:00;;;;;;;0.00;0.00;;;;;;;11.08;100.00;99726.59;5028204;28;20039;-42
2023/08/05 06:42:27;;;;;;;0.00;0.00;;;;;;;11.00;100.00;99747.84;5026950;28;20145;-42
2023/08/05 06:44:54;;;;;;;0.00;0.00;;;;;;;10.96;100.00;99752.53;5028897;28;20061;-42
2023/08/05 06:47:21;;;;;;;0.30;0.30;;;;;;;10.93;100.00;99758.81;5023407;28;20148;-46
2023/08/05 06:49:47;;;;;;;0.00;0.00;;;;;;;10.92;100.00;99773.03;5028498;28;20058;-44
2023/08/05 06:52:14;;;;;;;0.00;0.00;;;;;;;10.94;100.00;99781.75;5028783;28;20558;-41
2023/08/05 06:54:41;;;;;;;0.00;0.00;;;;;;;10.97;100.00;99781.81;5027756;28;20565;-41
2023/08/05 06:57:08;;;;;;;0.73;0.73;;;;;;;10.97;100.00;99794.88;5028598;28;20306;-46
2023/08/05 06:59:35;;;;;;;0.00;0.00;;;;;;;10.95;100.00;99795.25;5028083;28;20050;-42
2023/08/05 07:02:03;;;;;;;0.00;0.00;;;;;;;10.93;100.00;99808.66;5027166;28;20434;-42
2023/08/05 07:04:30;;;;;;;0.00;0.00;;;;;;;10.91;100.00;99810.19;5026248;28;20040;-42
2023/08/05 07:06:58;;;;;;;0.00;0.00;;;;;;;10.96;100.00;99829.28;5020985;28;20041;-41
2023/08/05 07:09:25;;;;;;;0.00;0.00;;;;;;;10.97;100.00;99845.53;5029257;28;20050;-42
2023/08/05 07:11:54;;;;;;;0.00;0.00;;;;;;;10.96;100.00;99845.91;5026350;28;20042;-42
2023/08/05 07:14:21;;;;;;;0.00;0.00;;;;;;;10.95;100.00;99847.06;5026207;28;20111;-45
2023/08/05 07:16:47;;;;;;;0.00;0.00;;;;;;;10.98;100.00;99855.44;5028407;28;20073;-42
2023/08/05 07:19:14;;;;;;;0.00;0.00;;;;;;;11.01;100.00;99849.16;5030994;28;20041;-42
2023/08/05 07:21:41;;;;;;;0.00;0.00;;;;;;;11.03;100.00;99859.88;5025409;28;20041;-44
2023/08/05 07:24:08;;;;;;;0.00;0.00;;;;;;;11.04;100.00;99869.75;5025314;28;20047;-47
2023/08/05 07:26:37;;;;;;;0.00;0.00;;;;;;;11.06;100.00;99878.53;5025366;28;20626;-43
2023/08/05 07:29:04;;;;;;;0.00;0.00;;;;;;;11.10;100.00;99887.69;5030672;28;20550;-41
2023/08/05 07:31:30;;;;;;;0.00;0.00;;;;;;;11.19;100.00;99902.09;5030900;28;20041;-42
2023/08/05 07:33:57;;;;;;;0.00;0.00;;;;;;;11.28;100.00;99908.16;5034061;28;20044;-42
2023/08/05 07:36:26;;;;;;;0.00;0.00;;;;;;;11.34;100.00;99914.22;5034069;28;20136;-42
2023/08/05 07:38:54;;;;;;;0.00;0.00;;;;;;;11.40;100.00;99921.84;5032859;28;20435;-43
2023/08/05 07:41:23;;;;;;;0.00;0.00;;;;;;;11.45;100.00;99934.59;5020040;28;20583;-42
2023/08/05 07:43:50;;;;;;;0.00;0.00;;;;;;;11.48;100.00;99937.44;5031444;28;20049;-42
2023/08/05 07:46:19;;;;;;;0.00;0.00;;;;;;;11.51;100.00;99946.97;5030585;28;20738;-42
2023/08/05 07:48:50;;;;;;;0.00;0.00;;;;;;;11.54;100.00;99960.09;5032575;28;20045;-42
2023/08/05 07:51:18;;;;;;;0.00;0.00;;;;;;;11.57;100.00;99971.22;5032531;28;20056;-42
2023/08/05 07:53:48;;;;;;;0.00;0.00;;;;;;;11.57;100.00;99984.28;5031998;28;20041;-43
2023/08/05 07:56:16;;;;;;;0.00;0.00;;;;;;;11.64;100.00;99984.44;5029198;28;20137;-42
2023/08/05 07:58:46;;;;;;;0.00;0.00;;;;;;;11.63;100.00;99997.47;5030488;28;20103;-44
2023/08/05 08:01:19;;;;;;;0.00;0.00;;;;;;;11.65;100.00;100005.41;5033618;28;20050;-41
2023/08/05 08:03:47;;;;;;;0.00;0.00;;;;;;;11.67;100.00;100013.38;5026139;28;20075;-42
2023/08/05 08:06:15;;;;;;;0.00;0.00;;;;;;;11.71;100.00;100014.25;5033096;28;20046;-42
2023/08/05 08:08:47;;;;;;;0.00;0.00;;;;;;;11.75;100.00;100031.78;5032101;28;20139;-44
2023/08/05 08:11:14;;;;;;;0.00;0.00;;;;;;;11.79;100.00;100046.50;5033721;28;20416;-43
2023/08/05 08:13:41;;;;;;;0.00;0.00;;;;;;;11.83;100.00;100050.13;5029669;28;20577;-44
2023/08/05 08:16:08;;;;;;;0.00;0.00;;;;;;;11.87;100.00;100062.09;5031554;28;20075;-43
2023/08/05 08:18:35;;;;;;;0.00;0.00;;;;;;;11.92;100.00;100070.09;5032968;28;20133;-43
2023/08/05 08:21:03;;;;;;;0.00;0.00;;;;;;;11.99;100.00;100064.69;5033113;28;20056;-43
2023/08/05 08:23:30;;;;;;;0.00;0.00;;;;;;;12.05;100.00;100080.63;5024561;28;20049;-43
2023/08/05 08:25:58;;;;;;;0.00;0.00;;;;;;;12.07;100.00;100075.50;5032784;28;20056;-43
2023/08/05 08:28:26;;;;;;;0.00;0.00;;;;;;;12.07;100.00;100072.72;5020205;28;20053;-43
2023/08/05 08:30:54;;;;;;;0.00;0.00;;;;;;;12.13;100.00;100076.81;5033155;28;20064;-43
2023/08/05 08:33:23;;;;;;;0.00;0.00;;;;;;;12.23;100.00;100080.13;5033298;28;20049;-49
2023/08/05 08:35:50;;;;;;;0.00;0.00;;;;;;;12.24;100.00;100082.53;5032811;28;20065;-45
2023/08/05 08:38:17;;;;;;;0.25;0.25;;;;;;;12.19;100.00;100096.72;5031507;28;20033;-42
2023/08/05 08:40:48;;;;;;;0.00;0.00;;;;;;;12.19;100.00;100105.84;5028626;28;20077;-42
2023/08/05 08:43:20;;;;;;;0.00;0.00;;;;;;;12.17;100.00;100113.75;5029321;28;20431;-42
2023/08/05 08:45:51;;;;;;;0.00;0.00;;;;;;;12.16;100.00;100137.13;5029740;28;20512;-41
2023/08/05 08:48:18;;;;;;;0.00;0.00;;;;;;;12.14;100.00;100138.66;5029892;28;20045;-41
2023/08/05 08:50:52;;;;;;;0.00;0.00;;;;;;;12.14;100.00;100146.97;5028159;28;20045;-43
2023/08/05 08:53:20;;;;;;;0.00;0.00;;;;;;;12.11;100.00;100151.28;5030988;28;20487;-42
2023/08/05 08:55:48;;;;;;;0.00;0.00;;;;;;;12.13;100.00;100150.91;5030867;28;20083;-49
2023/08/05 08:58:15;;;;;;;0.00;0.00;;;;;;;12.09;100.00;100159.19;5026562;28;20107;-43
2023/08/05 09:00:42;;;;;;;0.00;0.00;;;;;;;12.10;100.00;100165.53;5028316;28;20044;-42
2023/08/05 09:03:09;;;;;;;0.10;0.10;;;;;;;12.10;100.00;100171.88;5029544;28;20048;-41
2023/08/05 09:05:44;;;;;;;0.00;0.00;;;;;;;12.09;100.00;100186.13;5029477;28;20053;-42
2023/08/05 09:08:11;;;;;;;0.00;0.00;;;;;;;12.09;100.00;100197.22;5030320;28;20060;-41
2023/08/05 09:10:38;;;;;;;0.00;0.00;;;;;;;12.16;100.00;100214.81;5038575;28;20037;-40
2023/08/05 09:13:07;;;;;;;0.00;0.00;;;;;;;12.29;100.00;100206.28;5028742;28;20049;-44
2023/08/05 09:15:37;;;;;;;0.00;0.00;;;;;;;12.47;100.00;100216.53;5032008;28;20053;-41
2023/08/05 09:18:05;;;;;;;1.20;0.28;;;;;;;12.81;100.00;100218.28;5031535;28;20129;-41
2023/08/05 09:20:33;;;;;;;0.00;0.00;;;;;;;13.05;100.00;100221.84;5031799;28;20553;-41
2023/08/05 09:23:05;;;;;;;0.00;0.00;;;;;;;13.13;100.00;100229.16;5031948;28;20057;-41
2023/08/05 09:25:38;;;;;;;0.00;0.00;;;;;;;13.09;100.00;100233.84;5032805;28;20143;-41
2023/08/05 09:28:06;;;;;;;0.00;0.00;;;;;;;13.01;100.00;100237.66;5032065;28;20049;-41
2023/08/05 09:30:33;;;;;;;0.00;0.00;;;;;;;13.03;100.00;100235.28;5031004;28;20749;-41
2023/08/05 09:33:00;;;;;;;0.00;0.00;;;;;;;13.12;100.00;100236.69;5031749;28;20041;-42
2023/08/05 09:35:27;;;;;;;0.00;0.00;;;;;;;13.15;100.00;100249.03;5031551;28;20045;-41
2023/08/05 09:37:54;;;;;;;0.00;0.00;;;;;;;13.24;100.00;100257.88;5032119;28;20067;-41
2023/08/05 09:40:29;;;;;;;0.00;0.00;;;;;;;13.35;100.00;100258.84;5031310;28;20381;-42
2023/08/05 09:43:02;;;;;;;0.00;0.00;;;;;;;13.41;100.00;100279.59;5030550;28;20123;-42
2023/08/05 09:45:33;;;;;;;0.00;0.00;;;;;;;13.47;100.00;100282.84;5033495;28;20041;-44
2023/08/05 09:48:10;;;;;;;0.00;0.00;;;;;;;13.49;100.00;100284.09;5030214;28;20046;-43
2023/08/05 09:50:38;;;;;;;0.10;0.10;;;;;;;13.46;100.00;100293.16;5031884;28;20042;-44
2023/08/05 09:53:07;;;;;;;0.00;0.00;;;;;;;13.43;100.00;100305.03;5031440;28;20049;-42
2023/08/05 09:55:38;;;;;;;0.00;0.00;;;;;;;13.49;100.00;100313.88;5030382;28;20072;-41
2023/08/05 09:58:08;;;;;;;0.22;0.22;;;;;;;13.56;100.00;100317.53;5031528;28;20503;-42
2023/08/05 10:00:37;;;;;;;0.00;0.00;;;;;;;13.62;100.00;100318.03;5018343;28;20046;-43
2023/08/05 10:03:08;;;;;;;0.00;0.00;;;;;;;13.69;100.00;100327.28;5032285;28;20049;-42
2023/08/05 10:05:35;;;;;;;0.00;0.00;;;;;;;13.81;100.00;100315.94;5031367;28;20533;-41
2023/08/05 10:08:05;;;;;;;0.10;0.10;;;;;;;13.97;100.00;100318.50;5029694;28;20049;-42
2023/08/05 10:10:37;;;;;;;0.00;0.00;;;;;;;14.10;100.00;100333.78;5018365;28;20103;-43
2023/08/05 10:13:16;;;;;;;0.00;0.00;;;;;;;14.46;100.00;100346.16;5012974;28;20049;-42
2023/08/05 10:15:47;;;;;;;0.00;0.00;;;;;;;14.90;100.00;100337.88;5031258;28;20050;-43
2023/08/05 10:18:16;;;;;;;0.00;0.00;;;;;;;15.62;100.00;100354.84;5032532;28;20042;-44
2023/08/05 10:20:50;;;;;;;0.00;0.00;;;;;;;16.22;100.00;100363.53;5013631;28;20574;-43
2023/08/05 10:23:18;;;;;;;0.00;0.00;;;;;;;16.44;100.00;100360.41;5030145;28;20061;-43
2023/08/05 10:25:49;;;;;;;0.00;0.00;;;;;;;16.45;100.00;100362.03;5030893;28;20065;-43
2023/08/05 10:28:27;;;;;;;0.00;0.00;;;;;;;16.40;100.00;100359.63;5030997;28;20048;-42
2023/08/05 10:30:55;;;;;;;0.00;0.00;;;;;;;16.11;100.00;100369.06;5028231;28;20095;-42
2023/08/05 10:33:24;;;;;;;0.08;0.08;;;;;;;15.70;100.00;100370.44;5030634;28;20045;-42
2023/08/05 10:36:04;;;;;;;0.00;0.00;;;;;;;15.34;100.00;100369.31;5030912;28;20069;-43
2023/08/05 10:38:41;;;;;;;0.00;0.00;;;;;;;15.07;100.00;100382.63;5028611;28;20050;-44
2023/08/05 10:41:10;;;;;;;0.00;0.00;;;;;;;14.97;100.00;100377.78;5016977;28;20041;-43
2023/08/05 10:43:41;;;;;;;0.00;0.00;;;;;;;15.04;100.00;100366.66;5031049;28;20052;-43
2023/08/05 10:46:14;;;;;;;0.00;0.00;;;;;;;15.25;100.00;100372.44;5028675;28;20095;-43
2023/08/05 10:48:44;;;;;;;0.00;0.00;;;;;;;15.57;100.00;100378.31;5030906;28;20048;-48
2023/08/05 10:51:14;;;;;;;0.00;0.00;;;;;;;15.83;100.00;100375.28;5031183;28;20038;-44
2023/08/05 10:54:01;;;;;;;0.05;0.05;;;;;;;16.09;100.00;100374.25;5030620;28;20815;-43
2023/08/05 10:56:30;;;;;;;0.00;0.00;;;;;;;16.31;100.00;100389.91;5027958;28;20111;-44
2023/08/05 10:59:03;;;;;;;0.05;0.05;;;;;;;16.49;100.00;100383.59;5014023;28;20046;-43
2023/08/05 11:01:52;;;;;;;0.00;0.00;;;;;;;16.45;100.00;100384.38;5030654;28;20053;-43
2023/08/05 11:04:26;;;;;;;;;;;;;;;16.13;100.00;100375.06;5031216;28;20530;-45
2023/08/05 11:06:55;;;;;;;0.00;0.00;;;;;;;15.67;100.00;100391.53;5031917;28;19956;-43
2023/08/05 11:09:22;;;;;;;0.00;0.00;;;;;;;15.56;100.00;100387.06;5034681;28;20053;-44
2023/08/05 11:11:49;;;;;;;0.00;0.00;;;;;;;15.51;100.00;100396.59;5034374;28;20103;-46
2023/08/05 11:14:18;;;;;;;0.00;0.00;;;;;;;15.57;100.00;100406.19;5032601;28;20042;-44
2023/08/05 11:16:47;;;;;;;0.00;0.00;;;;;;;15.70;100.00;100404.69;5034122;28;20598;-43
2023/08/05 11:19:15;;;;;;;0.00;0.00;;;;;;;15.95;100.00;100407.66;5033313;28;20500;-44
2023/08/05 11:21:45;;;;;;;0.00;0.00;;;;;;;15.95;100.00;100416.03;5034349;28;20037;-44
2023/08/05 11:24:18;;;;;;;0.05;0.05;;;;;;;15.73;100.00;100409.50;5032968;28;20127;-46
2023/08/05 11:26:48;;;;;;;0.00;0.00;;;;;;;15.66;100.00;100405.88;5020981;28;20049;-43